createdAt,value
2023-02-16T00:01:17.285Z,23.02
2023-02-16T00:02:40.718Z,21.33
2023-02-16T00:04:09.880Z,21.17
2023-02-16T00:05:34.261Z,19.05
2023-02-16T00:06:58.604Z,18.02
2023-02-16T00:08:21.035Z,19.98
2023-02-16T00:09:44.519Z,19.90
2023-02-16T00:11:27.248Z,20.73
2023-02-16T00:13:10.102Z,19.15
2023-02-16T00:14:35.601Z,20.75
2023-02-16T00:15:58.061Z,19.27
2023-02-16T00:17:21.470Z,20.10
2023-02-16T00:18:44.047Z,21.58
2023-02-16T00:20:10.749Z,20.80
2023-02-16T00:21:34.145Z,18.65
2023-02-16T00:22:56.535Z,20.42
2023-02-16T00:24:19.910Z,20.38
2023-02-16T00:25:42.313Z,19.33
2023-02-16T00:27:13.403Z,20.98
2023-02-16T00:28:37.232Z,18.13
2023-02-16T00:30:00.682Z,17.70
2023-02-16T00:31:27.234Z,21.35
2023-02-16T00:32:50.825Z,20.83
2023-02-16T00:34:34.040Z,16.80
2023-02-16T00:35:56.424Z,20.27
2023-02-16T00:37:19.821Z,17.55
2023-02-16T00:38:42.785Z,18.52
2023-02-16T00:40:06.882Z,18.88
2023-02-16T00:41:47.687Z,21.08
2023-02-16T00:43:15.292Z,20.85
2023-02-16T00:44:43.105Z,18.73
2023-02-16T00:46:05.710Z,18.70
2023-02-16T00:47:33.768Z,20.10
2023-02-16T00:48:56.164Z,19.95
2023-02-16T00:50:21.858Z,19.60
2023-02-16T00:51:44.462Z,20.55
2023-02-16T00:53:07.846Z,17.15
2023-02-16T00:54:31.945Z,18.10
2023-02-16T00:55:58.181Z,18.65
2023-02-16T00:57:20.944Z,19.23
2023-02-16T00:58:44.393Z,23.70
2023-02-16T01:00:16.086Z,18.85
2023-02-16T01:01:39.959Z,17.30
2023-02-16T01:03:06.671Z,18.33
2023-02-16T01:04:30.185Z,18.10
2023-02-16T01:06:13.610Z,21.35
2023-02-16T01:07:54.513Z,17.77
2023-02-16T01:09:39.059Z,19.73
2023-02-16T01:11:10.881Z,22.27
2023-02-16T01:12:34.258Z,21.38
2023-02-16T01:13:57.235Z,16.08
2023-02-16T01:15:24.632Z,19.05
2023-02-16T01:16:48.038Z,19.08
2023-02-16T01:18:13.639Z,17.75
2023-02-16T01:19:37.001Z,20.15
2023-02-16T01:20:59.412Z,17.38
2023-02-16T01:22:22.826Z,18.90
2023-02-16T01:23:46.167Z,18.65
2023-02-16T01:25:09.915Z,20.27
2023-02-16T01:26:35.264Z,17.00
2023-02-16T01:27:59.019Z,17.30
2023-02-16T01:29:23.469Z,18.38
2023-02-16T01:30:48.512Z,17.40
2023-02-16T01:32:13.666Z,19.80
2023-02-16T01:33:37.117Z,23.58
2023-02-16T01:34:59.590Z,16.65
2023-02-16T01:36:26.095Z,19.33
2023-02-16T01:37:48.554Z,22.92
2023-02-16T01:39:14.111Z,18.10
2023-02-16T01:40:40.841Z,15.82
2023-02-16T01:42:16.555Z,20.67
2023-02-16T01:43:45.518Z,20.63
2023-02-16T01:45:11.635Z,19.85
2023-02-16T01:46:40.273Z,23.73
2023-02-16T01:48:05.275Z,17.35
2023-02-16T01:49:29.378Z,18.30
2023-02-16T01:50:56.639Z,17.75
2023-02-16T01:52:28.355Z,16.02
2023-02-16T01:53:53.960Z,18.67
2023-02-16T01:55:20.656Z,19.33
2023-02-16T01:56:47.366Z,18.23
2023-02-16T01:58:16.276Z,18.85
2023-02-16T01:59:59.673Z,17.15
2023-02-16T02:01:40.565Z,16.27
2023-02-16T02:03:18.644Z,17.48
2023-02-16T02:05:05.232Z,16.70
2023-02-16T02:06:33.337Z,18.95
2023-02-16T02:07:58.674Z,18.95
2023-02-16T02:09:25.782Z,21.88
2023-02-16T02:11:03.024Z,17.00
2023-02-16T02:12:44.651Z,17.17
2023-02-16T02:14:09.977Z,19.55
2023-02-16T02:15:34.117Z,18.67
2023-02-16T02:17:00.621Z,17.90
2023-02-16T02:18:24.033Z,21.63
2023-02-16T02:19:51.435Z,19.38
2023-02-16T02:21:49.351Z,18.48
2023-02-16T02:23:34.414Z,16.00
2023-02-16T02:25:13.078Z,18.15
2023-02-16T02:27:11.359Z,19.25
2023-02-16T02:28:38.890Z,19.08
2023-02-16T02:30:27.348Z,16.27
2023-02-16T02:31:55.964Z,17.10
2023-02-16T02:33:30.960Z,16.90
2023-02-16T02:37:06.228Z,17.95
2023-02-16T02:38:32.948Z,22.50
2023-02-16T02:40:02.888Z,20.02
2023-02-16T02:41:55.036Z,19.23
2023-02-16T02:43:22.341Z,16.15
2023-02-16T02:44:49.221Z,20.00
2023-02-16T02:46:16.925Z,17.02
2023-02-16T02:47:42.277Z,21.60
2023-02-16T02:49:05.712Z,20.52
2023-02-16T02:51:08.306Z,20.65
2023-02-16T02:52:31.755Z,15.43
2023-02-16T02:54:11.847Z,21.73
2023-02-16T02:55:55.414Z,15.40
2023-02-16T02:57:39.782Z,16.08
2023-02-16T02:59:25.602Z,17.48
2023-02-16T03:00:51.707Z,16.60
2023-02-16T03:02:14.283Z,15.52
2023-02-16T03:03:40.280Z,20.05
2023-02-16T03:05:03.749Z,16.92
2023-02-16T03:06:30.062Z,16.10
2023-02-16T03:07:57.386Z,18.85
2023-02-16T03:09:21.091Z,18.58
2023-02-16T03:11:04.376Z,19.55
2023-02-16T03:12:45.387Z,17.80
2023-02-16T03:14:15.290Z,16.30
2023-02-16T03:15:39.246Z,25.08
2023-02-16T03:17:22.612Z,15.73
2023-02-16T03:19:04.159Z,18.10
2023-02-16T03:20:45.464Z,15.85
2023-02-16T03:22:26.634Z,16.90
2023-02-16T03:24:07.613Z,15.23
2023-02-16T03:25:50.867Z,16.20
2023-02-16T03:27:32.772Z,17.08
2023-02-16T03:29:13.886Z,16.00
2023-02-16T03:30:39.037Z,17.08
2023-02-16T03:32:02.709Z,16.95
2023-02-16T03:33:26.836Z,18.45
2023-02-16T03:34:50.664Z,20.23
2023-02-16T03:36:13.079Z,18.73
2023-02-16T03:37:36.736Z,21.50
2023-02-16T03:38:59.705Z,30.98
2023-02-16T03:40:29.673Z,17.40
2023-02-16T03:41:54.538Z,17.05
2023-02-16T03:43:16.945Z,16.45
2023-02-16T03:44:41.165Z,20.60
2023-02-16T03:46:06.299Z,19.13
2023-02-16T03:47:28.708Z,18.67
2023-02-16T03:48:52.096Z,15.82
2023-02-16T03:50:17.251Z,19.58
2023-02-16T03:51:40.707Z,18.30
2023-02-16T03:53:10.314Z,15.88
2023-02-16T03:54:33.736Z,14.40
2023-02-16T03:55:57.183Z,16.15
2023-02-16T03:57:20.565Z,15.65
2023-02-16T03:58:43.963Z,17.58
2023-02-16T04:00:07.521Z,20.52
2023-02-16T04:04:17.876Z,16.42
2023-02-16T04:05:40.294Z,19.15
2023-02-16T04:07:03.675Z,16.00
2023-02-16T04:08:27.164Z,15.65
2023-02-16T04:09:49.581Z,17.27
2023-02-16T04:11:30.629Z,16.02
2023-02-16T04:12:54.041Z,17.98
2023-02-16T04:14:16.498Z,20.95
2023-02-16T04:15:41.216Z,23.42
2023-02-16T04:17:03.924Z,18.88
2023-02-16T04:18:27.377Z,20.73
2023-02-16T04:19:52.315Z,16.73
2023-02-16T04:21:15.751Z,16.65
2023-02-16T04:22:39.373Z,15.90
2023-02-16T04:24:03.984Z,18.67
2023-02-16T04:25:26.619Z,15.85
2023-02-16T04:26:50.032Z,21.65
2023-02-16T04:28:13.396Z,18.80
2023-02-16T04:29:36.757Z,15.60
2023-02-16T04:31:00.218Z,17.10
2023-02-16T04:32:23.646Z,20.15
2023-02-16T04:33:46.026Z,17.48
2023-02-16T04:35:11.064Z,18.33
2023-02-16T04:36:35.228Z,23.08
2023-02-16T04:37:58.719Z,15.10
2023-02-16T04:39:22.201Z,16.45
2023-02-16T04:40:45.572Z,14.88
2023-02-16T04:42:08.998Z,18.20
2023-02-16T04:43:33.150Z,25.92
2023-02-16T04:44:56.538Z,18.00
2023-02-16T04:46:19.409Z,17.48
2023-02-16T04:47:42.859Z,16.50
2023-02-16T04:49:07.109Z,16.52
2023-02-16T04:50:31.908Z,21.65
2023-02-16T04:51:54.353Z,21.50
2023-02-16T04:53:17.746Z,17.35
2023-02-16T04:54:44.178Z,16.95
2023-02-16T04:56:11.201Z,17.33
2023-02-16T04:57:34.705Z,18.38
2023-02-16T04:58:57.237Z,17.13
2023-02-16T05:00:21.676Z,19.33
2023-02-16T05:01:44.149Z,17.17
2023-02-16T05:03:07.612Z,22.50
2023-02-16T05:04:31.352Z,17.33
2023-02-16T05:05:55.292Z,15.43
2023-02-16T05:07:18.699Z,19.40
2023-02-16T05:08:41.292Z,16.02
2023-02-16T05:10:05.721Z,16.35
2023-02-16T05:11:46.776Z,19.35
2023-02-16T05:13:28.708Z,18.02
2023-02-16T05:14:52.277Z,15.73
2023-02-16T05:16:14.799Z,15.00
2023-02-16T05:17:38.237Z,19.42
2023-02-16T05:19:00.641Z,18.80
2023-02-16T05:20:44.375Z,18.75
2023-02-16T05:22:08.622Z,19.15
2023-02-16T05:23:32.012Z,19.55
2023-02-16T05:24:54.473Z,18.38
2023-02-16T05:26:17.945Z,19.13
2023-02-16T05:27:41.324Z,19.67
2023-02-16T05:29:04.204Z,17.85
2023-02-16T05:30:27.661Z,20.80
2023-02-16T05:31:50.294Z,17.48
2023-02-16T05:33:13.845Z,19.25
2023-02-16T05:34:37.607Z,18.67
2023-02-16T05:36:01.003Z,17.67
2023-02-16T05:37:25.886Z,18.92
2023-02-16T05:38:49.454Z,22.65
2023-02-16T05:40:13.846Z,16.40
2023-02-16T05:41:37.348Z,22.17
2023-02-16T05:43:00.717Z,15.50
2023-02-16T05:44:24.376Z,21.52
2023-02-16T05:45:48.232Z,15.43
2023-02-16T05:47:11.599Z,18.02
2023-02-16T05:48:34.040Z,18.02
2023-02-16T05:49:57.468Z,19.13
2023-02-16T05:51:20.542Z,17.65
2023-02-16T05:52:45.299Z,23.20
2023-02-16T05:54:07.990Z,15.55
2023-02-16T05:55:31.341Z,21.58
2023-02-16T05:56:55.196Z,18.65
2023-02-16T05:58:17.636Z,19.27
2023-02-16T05:59:41.048Z,18.23
2023-02-16T06:01:04.201Z,19.63
2023-02-16T06:02:29.489Z,18.02
2023-02-16T06:03:53.030Z,18.70
2023-02-16T06:05:16.538Z,22.50
2023-02-16T06:06:40.745Z,17.85
2023-02-16T06:08:05.839Z,16.33
2023-02-16T06:09:31.297Z,18.08
2023-02-16T06:10:54.494Z,21.88
2023-02-16T06:12:17.901Z,22.67
2023-02-16T06:13:41.303Z,14.88
2023-02-16T06:15:05.028Z,16.08
2023-02-16T06:16:29.271Z,22.20
2023-02-16T06:17:52.665Z,19.35
2023-02-16T06:19:16.881Z,21.23
2023-02-16T06:20:40.757Z,16.63
2023-02-16T06:22:04.173Z,17.50
2023-02-16T06:23:28.932Z,19.75
2023-02-16T06:24:52.338Z,22.52
2023-02-16T06:26:14.797Z,22.65
2023-02-16T06:27:38.227Z,15.25
2023-02-16T06:29:01.651Z,17.98
2023-02-16T06:30:26.047Z,17.90
2023-02-16T06:31:49.567Z,21.83
2023-02-16T06:33:12.326Z,21.45
2023-02-16T06:34:35.709Z,20.48
2023-02-16T06:35:58.973Z,18.27
2023-02-16T06:37:23.038Z,19.98
2023-02-16T06:38:48.844Z,17.33
2023-02-16T06:40:14.283Z,19.55
2023-02-16T06:41:40.294Z,19.50
2023-02-16T06:43:03.880Z,18.92
2023-02-16T06:44:27.233Z,17.52
2023-02-16T06:45:49.869Z,17.55
2023-02-16T06:47:13.385Z,18.25
2023-02-16T06:48:36.782Z,18.23
2023-02-16T06:50:00.203Z,18.13
2023-02-16T06:51:24.014Z,19.88
2023-02-16T06:52:47.432Z,23.50
2023-02-16T06:54:12.538Z,20.63
2023-02-16T06:55:36.742Z,20.92
2023-02-16T06:57:04.288Z,19.70
2023-02-16T06:58:34.185Z,25.35
2023-02-16T06:59:57.562Z,23.00
2023-02-16T07:01:23.321Z,17.55
2023-02-16T07:02:46.897Z,19.05
2023-02-16T07:04:10.845Z,21.77
2023-02-16T07:05:33.293Z,20.67
2023-02-16T07:06:56.872Z,21.20
2023-02-16T07:08:20.293Z,17.65
2023-02-16T07:09:46.641Z,18.70
2023-02-16T07:11:10.036Z,18.48
2023-02-16T07:12:32.459Z,31.50
2023-02-16T07:13:55.939Z,17.42
2023-02-16T07:15:19.620Z,18.67
2023-02-16T07:16:43.141Z,18.23
2023-02-16T07:18:07.016Z,27.67
2023-02-16T07:19:32.367Z,18.17
2023-02-16T07:20:55.823Z,15.48
2023-02-16T07:22:19.223Z,16.02
2023-02-16T07:23:42.702Z,21.55
2023-02-16T07:25:08.164Z,18.40
2023-02-16T07:26:31.597Z,17.75
2023-02-16T07:27:54.656Z,15.50
2023-02-16T07:29:18.386Z,15.65
2023-02-16T07:30:41.912Z,19.00
2023-02-16T07:32:05.788Z,16.70
2023-02-16T07:33:29.346Z,16.42
2023-02-16T07:34:52.771Z,15.43
2023-02-16T07:36:16.227Z,19.02
2023-02-16T07:37:39.681Z,19.55
2023-02-16T07:39:03.085Z,17.55
2023-02-16T07:40:28.054Z,16.70
2023-02-16T07:41:51.461Z,17.80
2023-02-16T07:43:15.691Z,17.50
2023-02-16T07:44:39.112Z,17.45
2023-02-16T07:46:02.958Z,19.88
2023-02-16T07:47:26.868Z,13.70
2023-02-16T07:48:50.744Z,19.75
2023-02-16T07:50:14.184Z,17.15
2023-02-16T07:51:37.681Z,18.92
2023-02-16T07:53:03.220Z,17.45
2023-02-16T07:54:26.608Z,15.98
2023-02-16T07:55:51.359Z,18.23
2023-02-16T07:57:14.736Z,21.48
2023-02-16T07:58:38.300Z,17.63
2023-02-16T08:00:01.851Z,16.63
2023-02-16T08:01:24.511Z,13.68
2023-02-16T08:02:48.054Z,15.95
2023-02-16T08:04:11.527Z,17.33
2023-02-16T08:05:36.128Z,16.10
2023-02-16T08:06:59.728Z,17.05
2023-02-16T08:08:23.140Z,16.52
2023-02-16T08:09:46.536Z,17.48
2023-02-16T08:11:12.067Z,19.00
2023-02-16T08:12:35.468Z,18.10
2023-02-16T08:14:01.051Z,17.30
2023-02-16T08:15:24.757Z,19.70
2023-02-16T08:16:53.596Z,19.42
2023-02-16T08:18:18.240Z,17.02
2023-02-16T08:19:41.832Z,22.08
2023-02-16T08:21:13.927Z,18.85
2023-02-16T08:22:38.072Z,17.55
2023-02-16T08:24:02.836Z,17.65
2023-02-16T08:25:26.257Z,18.25
2023-02-16T08:26:53.042Z,17.45
2023-02-16T08:28:16.440Z,19.98
2023-02-16T08:29:41.505Z,19.30
2023-02-16T08:31:06.391Z,16.10
2023-02-16T08:32:30.218Z,22.85
2023-02-16T08:33:54.946Z,23.83
2023-02-16T08:35:18.451Z,19.13
2023-02-16T08:36:44.472Z,22.58
2023-02-16T08:38:08.862Z,22.67
2023-02-16T08:39:33.902Z,20.50
2023-02-16T08:40:57.282Z,19.40
2023-02-16T08:42:22.014Z,18.25
2023-02-16T08:43:45.808Z,19.73
2023-02-16T08:45:09.965Z,19.92
2023-02-16T08:46:34.143Z,19.13
2023-02-16T08:47:57.580Z,18.92
2023-02-16T08:49:22.822Z,29.80
2023-02-16T08:50:53.405Z,18.27
2023-02-16T08:52:16.955Z,21.95
2023-02-16T08:53:39.366Z,19.85
2023-02-16T08:55:03.307Z,20.75
2023-02-16T08:56:27.698Z,18.90
2023-02-16T08:57:52.395Z,20.60
2023-02-16T08:59:16.852Z,18.88
2023-02-16T09:00:39.249Z,18.13
2023-02-16T09:02:02.715Z,22.35
2023-02-16T09:03:26.264Z,19.70
2023-02-16T09:04:49.687Z,23.30
2023-02-16T09:06:14.994Z,21.77
2023-02-16T09:07:38.398Z,21.30
2023-02-16T09:09:01.786Z,18.50
2023-02-16T09:10:25.208Z,18.38
2023-02-16T09:11:48.967Z,22.10
2023-02-16T09:13:16.085Z,22.38
2023-02-16T09:14:39.643Z,20.20
2023-02-16T09:16:06.951Z,21.45
2023-02-16T09:17:31.058Z,20.95
2023-02-16T09:18:54.493Z,19.92
2023-02-16T09:20:20.267Z,28.33
2023-02-16T09:21:45.045Z,22.33
2023-02-16T09:23:07.764Z,21.85
2023-02-16T09:24:33.562Z,20.95
2023-02-16T09:25:56.937Z,20.88
2023-02-16T09:27:20.362Z,20.40
2023-02-16T09:28:45.775Z,23.63
2023-02-16T09:30:10.433Z,21.98
2023-02-16T09:31:35.380Z,20.30
2023-02-16T09:33:00.394Z,22.83
2023-02-16T09:34:26.233Z,24.30
2023-02-16T09:35:51.699Z,17.70
2023-02-16T09:37:15.630Z,21.35
2023-02-16T09:38:40.090Z,23.48
2023-02-16T09:40:04.639Z,29.05
2023-02-16T09:41:33.927Z,25.10
2023-02-16T09:43:04.730Z,23.63
2023-02-16T09:44:37.977Z,30.15
2023-02-16T09:46:03.794Z,25.85
2023-02-16T09:47:30.994Z,27.65
2023-02-16T09:48:54.899Z,29.27
2023-02-16T09:50:27.792Z,29.13
2023-02-16T09:52:06.620Z,22.60
2023-02-16T09:53:37.156Z,20.25
2023-02-16T09:55:01.999Z,20.48
2023-02-16T09:56:29.861Z,23.90
2023-02-16T09:58:01.109Z,22.80
2023-02-16T09:59:38.129Z,21.58
2023-02-16T10:01:08.127Z,21.52
2023-02-16T10:02:42.510Z,21.23
2023-02-16T10:04:25.654Z,31.50
2023-02-16T10:05:52.964Z,25.38
2023-02-16T10:07:26.557Z,26.55
2023-02-16T10:08:53.156Z,27.08
2023-02-16T10:10:20.255Z,23.00
2023-02-16T10:11:48.827Z,26.75
2023-02-16T10:13:18.824Z,29.42
2023-02-16T10:14:46.919Z,26.35
2023-02-16T10:16:16.995Z,23.20
2023-02-16T10:17:46.026Z,23.75
2023-02-16T10:19:16.535Z,22.83
2023-02-16T10:20:41.674Z,25.63
2023-02-16T10:22:08.240Z,25.25
2023-02-16T10:23:38.860Z,26.42
2023-02-16T10:25:05.702Z,25.73
2023-02-16T10:26:33.720Z,26.02
2023-02-16T10:28:06.000Z,28.52
2023-02-16T10:29:29.766Z,29.15
2023-02-16T10:30:59.549Z,23.02
2023-02-16T10:32:29.167Z,27.40
2023-02-16T10:34:02.613Z,28.67
2023-02-16T10:35:33.073Z,23.90
2023-02-16T10:37:09.449Z,27.77
2023-02-16T10:38:37.554Z,31.80
2023-02-16T10:40:28.791Z,27.92
2023-02-16T10:41:57.388Z,23.13
2023-02-16T10:43:26.515Z,31.83
2023-02-16T10:44:56.845Z,27.67
2023-02-16T10:46:24.857Z,25.40
2023-02-16T10:47:48.487Z,30.25
2023-02-16T10:49:14.235Z,29.45
2023-02-16T10:50:42.010Z,24.25
2023-02-16T10:52:05.849Z,33.03
2023-02-16T10:53:36.626Z,27.40
2023-02-16T10:55:00.059Z,26.52
2023-02-16T10:56:40.476Z,30.23
2023-02-16T10:58:04.248Z,23.40
2023-02-16T10:59:31.706Z,30.00
2023-02-16T11:00:59.899Z,26.17
2023-02-16T11:02:27.551Z,23.67
2023-02-16T11:03:53.071Z,33.58
2023-02-16T11:05:36.783Z,28.13
2023-02-16T11:07:05.055Z,27.60
2023-02-16T11:08:49.750Z,29.15
2023-02-16T11:10:21.408Z,29.55
2023-02-16T11:11:46.604Z,29.98
2023-02-16T11:13:21.998Z,28.95
2023-02-16T11:14:50.503Z,27.88
2023-02-16T11:16:20.727Z,29.52
2023-02-16T11:17:53.986Z,26.20
2023-02-16T11:19:22.922Z,27.63
2023-02-16T11:20:55.965Z,30.33
2023-02-16T11:22:31.202Z,33.22
2023-02-16T11:24:02.071Z,28.35
2023-02-16T11:25:27.484Z,26.42
2023-02-16T11:27:05.817Z,31.92
2023-02-16T11:28:32.634Z,26.77
2023-02-16T11:30:22.552Z,30.65
2023-02-16T11:31:46.498Z,40.42
2023-02-16T11:33:23.928Z,27.10
2023-02-16T11:34:49.420Z,31.27
2023-02-16T11:36:31.654Z,30.63
2023-02-16T11:37:56.282Z,29.23
2023-02-16T11:39:22.808Z,24.75
2023-02-16T11:40:53.019Z,31.98
2023-02-16T11:42:25.448Z,37.90
2023-02-16T11:43:48.863Z,29.38
2023-02-16T11:45:26.773Z,27.83
2023-02-16T11:46:50.296Z,31.15
2023-02-16T11:48:15.369Z,29.80
2023-02-16T11:49:41.786Z,24.73
2023-02-16T11:51:07.268Z,35.72
2023-02-16T11:52:32.568Z,27.10
2023-02-16T11:54:02.789Z,27.58
2023-02-16T11:55:32.720Z,26.83
2023-02-16T11:57:09.269Z,30.65
2023-02-16T11:58:32.892Z,28.05
2023-02-16T12:00:02.338Z,27.95
2023-02-16T12:01:29.195Z,28.95
2023-02-16T12:03:21.579Z,28.42
2023-02-16T12:04:57.775Z,27.33
2023-02-16T12:06:32.898Z,30.17
2023-02-16T12:08:19.006Z,24.15
2023-02-16T12:09:46.972Z,27.80
2023-02-16T12:11:18.316Z,27.45
2023-02-16T12:12:47.960Z,26.48
2023-02-16T12:14:30.486Z,32.90
2023-02-16T12:16:07.598Z,28.52
2023-02-16T12:17:51.694Z,24.17
2023-02-16T12:19:32.696Z,27.88
2023-02-16T12:21:02.954Z,25.60
2023-02-16T12:22:32.425Z,24.65
2023-02-16T12:24:01.517Z,36.58
2023-02-16T12:25:30.969Z,37.90
2023-02-16T12:26:57.363Z,29.02
2023-02-16T12:28:25.041Z,29.65
2023-02-16T12:29:55.191Z,25.50
2023-02-16T12:31:27.849Z,23.60
2023-02-16T12:33:02.740Z,23.98
2023-02-16T12:34:33.234Z,24.55
2023-02-16T12:36:16.762Z,24.13
2023-02-16T12:37:44.156Z,28.33
2023-02-16T12:39:18.071Z,28.60
2023-02-16T12:40:51.823Z,27.48
2023-02-16T12:42:26.010Z,30.55
2023-02-16T12:43:52.196Z,27.88
2023-02-16T12:45:19.875Z,31.92
2023-02-16T12:46:45.694Z,28.90
2023-02-16T12:48:22.110Z,31.10
2023-02-16T12:49:51.793Z,30.63
2023-02-16T12:51:20.269Z,28.52
2023-02-16T12:52:47.348Z,34.88
2023-02-16T12:54:16.249Z,28.98
2023-02-16T12:55:44.040Z,31.08
2023-02-16T12:57:12.049Z,26.65
2023-02-16T12:58:39.180Z,26.88
2023-02-16T13:02:00.712Z,23.92
2023-02-16T13:03:33.378Z,26.42
2023-02-16T13:05:00.281Z,25.85
2023-02-16T13:06:31.693Z,24.33
2023-02-16T13:07:59.698Z,28.55
2023-02-16T13:09:34.154Z,25.30
2023-02-16T13:11:01.458Z,26.83
2023-02-16T13:12:31.502Z,27.98
2023-02-16T13:14:01.983Z,26.17
2023-02-16T13:15:31.683Z,30.58
2023-02-16T13:16:57.972Z,32.20
2023-02-16T13:18:24.670Z,24.33
2023-02-16T13:19:48.769Z,30.88
2023-02-16T13:21:15.434Z,33.85
2023-02-16T13:23:02.748Z,26.55
2023-02-16T13:24:36.938Z,27.55
2023-02-16T13:26:17.910Z,28.42
2023-02-16T13:27:46.654Z,28.45
2023-02-16T13:29:31.669Z,24.58
2023-02-16T13:31:10.703Z,26.40
2023-02-16T13:32:51.073Z,23.00
2023-02-16T13:34:41.265Z,28.25
2023-02-16T13:36:36.011Z,25.00
2023-02-16T13:38:10.924Z,22.42
2023-02-16T13:39:43.287Z,23.77
2023-02-16T13:41:26.687Z,28.73
2023-02-16T13:43:17.367Z,20.80
2023-02-16T13:44:44.773Z,27.15
2023-02-16T13:46:13.538Z,23.25
2023-02-16T13:47:41.294Z,27.63
2023-02-16T13:49:05.406Z,23.55
2023-02-16T13:50:32.204Z,29.13
2023-02-16T13:51:55.649Z,26.02
2023-02-16T13:53:22.097Z,25.90
2023-02-16T13:54:46.121Z,23.67
2023-02-16T13:56:23.165Z,30.33
2023-02-16T13:58:05.670Z,24.23
2023-02-16T13:59:50.928Z,20.25
2023-02-16T14:01:39.865Z,20.45
2023-02-16T14:03:05.729Z,21.63
2023-02-16T14:05:07.955Z,23.58
2023-02-16T14:06:34.165Z,24.17
2023-02-16T14:08:24.469Z,25.95
2023-02-16T14:09:50.138Z,27.83
2023-02-16T14:11:13.894Z,24.95
2023-02-16T14:12:40.568Z,28.63
2023-02-16T14:14:03.999Z,27.60
2023-02-16T14:15:27.518Z,29.02
2023-02-16T14:16:50.955Z,30.20
2023-02-16T14:18:22.845Z,23.65
2023-02-16T14:19:56.094Z,23.15
2023-02-16T14:21:26.603Z,24.23
2023-02-16T14:22:52.498Z,29.67
2023-02-16T14:24:29.888Z,28.48
2023-02-16T14:26:03.114Z,33.17
2023-02-16T14:27:45.112Z,34.35
2023-02-16T14:29:12.564Z,25.00
2023-02-16T14:30:43.529Z,32.05
2023-02-16T14:32:17.651Z,23.52
2023-02-16T14:33:44.032Z,25.75
2023-02-16T14:35:10.766Z,24.77
2023-02-16T14:36:35.994Z,25.83
2023-02-16T14:38:01.245Z,27.67
2023-02-16T14:39:25.252Z,24.17
2023-02-16T14:40:55.465Z,29.35
2023-02-16T14:42:25.202Z,23.77
2023-02-16T14:43:50.147Z,43.40
2023-02-16T14:45:39.517Z,28.90
2023-02-16T14:47:13.743Z,28.48
2023-02-16T14:48:58.315Z,31.25
2023-02-16T14:50:42.982Z,24.80
2023-02-16T14:52:37.270Z,22.60
2023-02-16T14:54:23.818Z,33.20
2023-02-16T14:56:08.602Z,24.98
2023-02-16T14:57:34.171Z,34.17
2023-02-16T14:59:01.486Z,23.50
2023-02-16T15:00:30.477Z,23.48
2023-02-16T15:01:54.046Z,35.40
2023-02-16T15:03:19.005Z,34.30
2023-02-16T15:04:42.507Z,32.50
2023-02-16T15:06:07.525Z,25.63
2023-02-16T15:07:31.124Z,27.17
2023-02-16T15:08:58.178Z,31.63
2023-02-16T15:10:27.571Z,24.80
2023-02-16T15:12:12.532Z,30.05
2023-02-16T15:13:36.158Z,33.55
2023-02-16T15:15:01.010Z,32.03
2023-02-16T15:16:25.763Z,24.90
2023-02-16T15:17:51.304Z,33.97
2023-02-16T15:19:18.895Z,29.30
2023-02-16T15:20:42.492Z,23.35
2023-02-16T15:22:17.325Z,32.60
2023-02-16T15:23:50.236Z,24.38
2023-02-16T15:25:27.105Z,23.02
2023-02-16T15:27:01.525Z,18.92
2023-02-16T15:28:27.473Z,28.40
2023-02-16T15:30:06.124Z,29.70
2023-02-16T15:31:33.346Z,22.00
2023-02-16T15:32:58.825Z,25.55
2023-02-16T15:34:30.873Z,22.05
2023-02-16T15:35:56.870Z,24.10
2023-02-16T15:37:29.748Z,25.73
2023-02-16T15:38:58.558Z,29.08
2023-02-16T15:40:31.821Z,29.67
2023-02-16T15:42:09.900Z,19.23
2023-02-16T15:43:36.038Z,25.13
2023-02-16T15:44:59.404Z,39.95
2023-02-16T15:46:28.130Z,21.70
2023-02-16T15:47:51.592Z,25.52
2023-02-16T15:49:15.487Z,25.38
2023-02-16T15:50:38.467Z,19.25
2023-02-16T15:52:02.963Z,25.45
2023-02-16T15:53:36.166Z,25.33
2023-02-16T15:55:00.659Z,32.25
2023-02-16T15:56:31.147Z,24.10
2023-02-16T15:57:57.204Z,26.25
2023-02-16T15:59:31.486Z,27.33
2023-02-16T16:00:55.919Z,25.98
2023-02-16T16:02:21.773Z,27.10
2023-02-16T16:03:46.583Z,21.63
2023-02-16T16:05:20.827Z,21.88
2023-02-16T16:06:45.473Z,22.38
2023-02-16T16:08:09.553Z,28.00
2023-02-16T16:09:35.481Z,23.65
2023-02-16T16:10:59.186Z,26.08
2023-02-16T16:12:23.619Z,23.65
2023-02-16T16:13:48.547Z,25.63
2023-02-16T16:15:17.916Z,22.88
2023-02-16T16:16:41.562Z,29.00
2023-02-16T16:18:06.107Z,19.88
2023-02-16T16:19:34.711Z,19.88
2023-02-16T16:21:02.799Z,23.23
2023-02-16T16:22:42.863Z,21.85
2023-02-16T16:24:08.028Z,24.90
2023-02-16T16:25:38.700Z,23.55
2023-02-16T16:27:04.377Z,19.10
2023-02-16T16:28:37.917Z,33.85
2023-02-16T16:30:18.414Z,26.23
2023-02-16T16:31:45.021Z,23.88
2023-02-16T16:33:11.883Z,23.40
2023-02-16T16:34:38.407Z,24.08
2023-02-16T16:36:12.958Z,23.58
2023-02-16T16:37:37.574Z,26.98
2023-02-16T16:39:13.372Z,20.88
2023-02-16T16:40:38.436Z,23.40
2023-02-16T16:42:25.981Z,24.95
2023-02-16T16:43:55.362Z,18.75
2023-02-16T16:45:38.909Z,25.00
2023-02-16T16:47:22.428Z,23.05
2023-02-16T16:48:47.492Z,22.75
2023-02-16T16:50:30.180Z,27.48
2023-02-16T16:51:56.542Z,24.42
2023-02-16T16:53:55.372Z,27.30
2023-02-16T16:55:29.026Z,21.52
2023-02-16T16:56:52.601Z,24.67
2023-02-16T16:58:15.989Z,27.42
2023-02-16T16:59:39.503Z,26.77
2023-02-16T17:01:05.233Z,25.55
2023-02-16T17:02:28.870Z,24.50
2023-02-16T17:03:52.513Z,29.42
2023-02-16T17:05:15.986Z,24.27
2023-02-16T17:06:39.357Z,27.15
2023-02-16T17:08:02.887Z,27.60
2023-02-16T17:09:26.301Z,22.48
2023-02-16T17:10:49.729Z,28.42
2023-02-16T17:12:13.146Z,27.77
2023-02-16T17:13:36.902Z,37.13
2023-02-16T17:14:59.626Z,45.15
2023-02-16T17:16:27.436Z,35.10
2023-02-16T17:17:49.906Z,40.13
2023-02-16T17:19:14.256Z,37.15
2023-02-16T17:20:36.736Z,46.17
2023-02-16T17:22:00.153Z,26.20
2023-02-16T17:23:24.208Z,33.55
2023-02-16T17:24:48.102Z,34.00
2023-02-16T17:26:12.380Z,21.13
2023-02-16T17:27:36.156Z,25.65
2023-02-16T17:28:59.584Z,26.52
2023-02-16T17:30:23.119Z,29.88
2023-02-16T17:31:49.736Z,26.80
2023-02-16T17:33:14.320Z,22.13
2023-02-16T17:34:37.916Z,25.98
2023-02-16T17:36:03.842Z,25.58
2023-02-16T17:37:32.389Z,26.35
2023-02-16T17:39:01.782Z,25.15
2023-02-16T17:40:26.352Z,25.75
2023-02-16T17:41:50.855Z,20.05
2023-02-16T17:43:15.003Z,24.05
2023-02-16T17:44:38.383Z,21.88
2023-02-16T17:46:04.751Z,20.23
2023-02-16T17:47:30.262Z,29.17
2023-02-16T17:48:55.114Z,21.40
2023-02-16T17:50:18.964Z,26.10
2023-02-16T17:51:42.642Z,27.00
2023-02-16T17:53:10.083Z,25.80
2023-02-16T17:54:33.536Z,29.30
2023-02-16T17:55:58.144Z,26.77
2023-02-16T17:57:21.606Z,22.38
2023-02-16T17:58:45.607Z,25.60
2023-02-16T18:00:12.159Z,24.25
2023-02-16T18:01:37.627Z,23.05
2023-02-16T18:03:02.441Z,25.35
2023-02-16T18:04:25.891Z,23.20
2023-02-16T18:05:49.418Z,22.35
2023-02-16T18:07:14.101Z,22.05
2023-02-16T18:08:37.515Z,24.20
2023-02-16T18:10:01.103Z,21.92
2023-02-16T18:11:24.563Z,25.80
2023-02-16T18:12:48.010Z,26.95
2023-02-16T18:14:12.310Z,26.33
2023-02-16T18:15:36.404Z,25.25
2023-02-16T18:17:02.111Z,22.63
2023-02-16T18:18:26.870Z,21.83
2023-02-16T18:19:50.292Z,23.02
2023-02-16T18:21:13.923Z,26.23
2023-02-16T18:22:37.421Z,25.65
2023-02-16T18:24:00.839Z,25.15
2023-02-16T18:25:24.541Z,23.13
2023-02-16T18:26:47.974Z,24.73
2023-02-16T18:28:14.698Z,24.88
2023-02-16T18:29:38.139Z,28.30
2023-02-16T18:31:02.123Z,23.95
2023-02-16T18:32:25.659Z,25.15
2023-02-16T18:33:50.462Z,27.80
2023-02-16T18:35:14.599Z,23.10
2023-02-16T18:36:38.322Z,26.52
2023-02-16T18:38:01.789Z,25.50
2023-02-16T18:39:25.219Z,22.95
2023-02-16T18:40:48.627Z,25.65
2023-02-16T18:42:12.242Z,26.73
2023-02-16T18:43:37.222Z,25.10
2023-02-16T18:45:00.674Z,24.50
2023-02-16T18:46:24.113Z,25.55
2023-02-16T18:47:47.529Z,26.02
2023-02-16T18:49:12.673Z,19.45
2023-02-16T18:50:36.165Z,28.05
2023-02-16T18:51:59.747Z,24.17
2023-02-16T18:53:23.124Z,20.13
2023-02-16T18:54:46.561Z,22.30
2023-02-16T18:56:11.884Z,27.92
2023-02-16T18:57:35.255Z,20.05
2023-02-16T18:58:58.712Z,20.60